Extreme weather reports worldwide

Lowest temperatures

Station
 
Location
 
Name
 
Wind
Knots
Gust
Knots
Vis
SM
Temp/Dew
C
Baro
inHg
METAR
 
FASI Del Fouche, ZA Springs Airfield 2 -32/-44 30.15 FASI 251300Z AUTO 01002KT //// // ////// M32/M44 Q1021
CWEU 3 7 -29/-32 29.49 CWEU 251300Z 15003KT 130V240 7SM IC OVC028 M29/M32 A2949 RMK SC8 SLP003
ARC PARC Arctic Village, US Arctic Village Airport 6 9 -28/-31 29.53 PARC 251256Z AUTO 34006KT 9SM CLR M29/M32 A2953 RMK AO2 SLPNO T12891317 FZRANO
YBK CYBK Baker Lake, CA Baker Lake Airport 2 15 -28/-31 29.78 CYBK 251300Z 01002KT 15SM IC SKC M28/M31 A2978 RMK SLP088
CWIL 10 -27/-29 29.76 CWIL 251300Z AUTO 24010KT ////SM ////// M27/M29 A2976

Station
 
Location
 
Name
 
Wind
Knots
Gust
Knots
Vis
SM
Temp/Dew
C
Baro
inHg
METAR
 
CWHT 1 -27/-30 CWHT 251300Z AUTO 08001KT M28/M31 RMK AO1 SOG 14 8012 SLP145 T12761306
YDB CYDB Burwash, CA Burwash Airport 2 9 -26/-29 29.57 CYDB 251300Z AUTO VRB02KT 9SM CLR M26/M29 A2957 RMK SLP105
CZRP 18 -26/-29 CZRP 251200Z AUTO 31018KT M27/M29 RMK AO1 PK WND 31021/1140 SLP093 T12661294
CXSE 1 -25/-27 CXSE 251200Z AUTO 34001KT M25/M28 RMK AO1 SOG 07 SLP080 T12531278
YGX CYGX Gillam, CA Gillam Airport 3 14 -24/-26 29.74 CYGX 251300Z 22003KT 14SM -SN FEW006 OVC017 M24/M26 A2974 RMK SC1SC7 SLP092
YGT CYGT Igloolik, CA Igloolik Airport 8 15 -24/-27 29.48 CYGT 251300Z 29008KT 15SM FEW012 M24/M27 A2948 RMK SC3 S TR AFT 22UTC/SNW CVR/ TR LOOSE SLP993
YHK CYHK Gjoa Haven, CA Gjoa Haven Airport 7 3 -24/-26 29.72 CYHK 251232Z AUTO 25007KT 3SM -SN BKN002 BKN014 M24/M26 A2972 RMK SLP067
FYU PFYU Fort Yukon, US Fort Yukon Airport 0 10 -24/-26 29.61 PFYU 251256Z AUTO 00000KT 10SM CLR M24/M27 A2961 RMK AO2 SLP052 T12441267 FZRANO
YUX CYUX Hall Beach, CA Hall Beach Airport 13 10 -23/-26 29.51 CYUX 251300Z 32013KT 10SM DRSN OVC020 M23/M26 A2951 RMK SC8 SLP995
CWGX 3 -23/-26 CWGX 251300Z AUTO 21003KT M24/M26 RMK AO1 SOG 37 8012 SLP090 T12381264
ORT PAOR Northway, US Northway Airport 3 10 -23/-26 29.57 PAOR 251253Z 09003KT 10SM FEW140 M23/M26 A2957 RMK AO2 SLP085 T12331261
YRB CYRB Resolute Bay, CA Resolute Bay Airport 22 15 -22/-25 29.49 CYRB 251300Z 01022KT 15SM IC DRSN FEW026 M22/M25 A2949 RMK SC2 SLP998
YEV CYEV Inuvik, CA Inuvik Mike Zubko Airport 6 15 -22/-24 29.78 CYEV 251300Z 06006KT 15SM SKC M22/M24 A2978 RMK SLP095
CXRB 0 -22/-24 CXRB 251300Z AUTO 00000KT M22/M25 RMK AO1 2PAST HR SOG 14 6011 SLP000 P0001 T12231248 50002
CYUS 8 -21/-24 29.70 CYUS 251306Z AUTO 27008KT 230V310 ////SM //// SCT011 BKN023 OVC028 M21/M24 A2970
CXAT 2 -21/-24 CXAT 251300Z AUTO 11002KT M22/M24 RMK AO1 1PAST HR 8026 SLP984 P0000 T12161244 50001
CZCP 2 -21/-23 29.72 CZCP 251300Z AUTO 01002KT 330V060 ////SM //// NCD M21/M23 A2972
YZS CYZS Coral Harbour, CA Coral Harbour Airport 9 15 -21/-23 29.69 CYZS 251300Z 32009KT 15SM FEW060 M21/M23 A2969 RMK SC1 SLP066
MJZ UERR Mirny, RU Mirny Airport 8 6.21 -20/-22 30.41 UERR 251300Z 27004MPS CAVOK M20/M22 Q1030 R25/390234 NOSIG RMK QFE741/0988
YKS UEEE Yakutsk, RU Yakutsk Airport 4 6.21 -20/-23 30.03 UEEE 251300Z 30002MPS 9999 SCT022 M20/M23 Q1017 R23L/450147 NOSIG RMK QFE754
YLT CYLT Alert, CA Alert Airport 16 4 -20/-24 29.31 CYLT 251300Z 22016KT 4SM -SN DRSN OVC020 M20/M24 A2931 RMK SC8 VIS VRB 3-5 SLP931
YCO CYCO Kugluktuk, CA Kugluktuk Airport 6 0.5 -20/-22 29.76 CYCO 251300Z 22006KT 1/2SM FZFG VV003 M20/M22 A2976 RMK FG8 SLP083
XTL CYBQ Tadoule Lake, CA Tadoule Lake Airport 6 9 -20/-22 29.59 CYBQ 251300Z AUTO 15006KT 9SM OVC090 M20/M22 A2959 RMK SLP058
YIO CYIO Pond Inlet, CA Pond Inlet Airport 5 9 -20/-22 29.41 CYIO 251302Z AUTO 21005KT 9SM -SN OVC022 M20/M22 A2941 RMK SLP970
CXTN 1 -20/-22 CXTN 251200Z AUTO 09001KT M20/M22 RMK AO1 SOG 111 8002 SLP074 T12001221
CZEV 4 -20/-21 CZEV 251300Z AUTO 09004KT M20/M22 RMK AO1 SOG 17 6006 SLP096 T12041215
GDX UHMM Magadan, RU Sokol Airport 2 6.21 -20/-26 29.35 UHMM 251300Z 03001MPS 9999 NSC M20/M26 Q0994 RMK QFE731 R28/25001MPS
PYJ UERP Yakutia, RU Polyarny Airport 4 6.21 -19/-20 30.30 UERP 251300Z 27002MPS CAVOK M19/M20 Q1026 R35/820238 NOSIG RMK QFE725
KGF UAKK Karaganda, KZ Sary-Arka Airport 6 6.21 -19/-22 30.41 UAKK 251300Z 08003MPS CAVOK M19/M22 Q1030 R23/820560 NOSIG RMK QFE725/0967
YDA CYDA Dawson City, CA Dawson City Airport 4 15 -19/-22 29.74 CYDA 251300Z 07004KT 15SM SCT006 OVC015 M19/M22 A2974 RMK ST3ST5 TR CM/TR MWE FROIN PRESFR SLP112
YCB CYCB Cambridge Bay, CA Cambridge Bay Airport 5 12 -19/-22 29.72 CYCB 251300Z VRB05KT 12SM IC FEW010 BKN068 M19/M22 A2972 RMK SC2AC5 SLP069
CXCK 0 -19/-21 CXCK 251300Z AUTO 00000KT M19/M22 RMK AO1 SOG 21 8009 SLP127 T11941215
GKN PAGK Gulkana, US Gulkana Airport 6 10 -19/-22 29.59 PAGK 251253Z AUTO 02006KT 10SM CLR M19/M22 A2959 RMK AO2 PRESFR SLP084 T11941222 TSNO
YXY CYXY Whitehorse, CA Whitehorse / Erik Nielsen International Airport 2 15 -19/-21 29.71 CYXY 251300Z 20002KT 15SM FEW120 SCT140 BKN220 M19/M21 A2971 RMK AC2AC2CI2 SLP123
YVQ CYVQ Norman Wells, CA Norman Wells Airport 0 10 -18/-20 29.79 CYVQ 251300Z 00000KT 10SM -SN FEW034 BKN074 OVC095 M18/M20 A2979 RMK SC2AC4AC2 SLP100
YRT CYRT Rankin Inlet, CA Rankin Inlet Airport 4 8 -18/-21 29.80 CYRT 251311Z 02004KT 8SM -SN OVC006 M18/M21 A2980 RMK SF8 SLP098
YTH CYTH Thompson, CA Thompson Airport 3 15 -18/-20 29.68 CYTH 251300Z 10003KT 070V140 15SM SCT005 OVC100 M18/M20 A2968 RMK SC4AC4 SLP077
THU BGTL Thule, GL Thule Air Base 0 2.24 -18/-18 29.26 BGTL 251306Z AUTO 00000KT 3600 BR BKN006 M18/M18 A2926 RMK AO2 VIS 2800V3600 BKN V FEW SLP898 TSNO $
YFB CYFB Iqaluit, CA Iqaluit Airport 33 41 0.5 -18/-20 29.40 CYFB 251300Z 32033G41KT 1/2SM R34/1200V1600FT/N -SN BLSN OVC010 M18/M20 A2940 RMK BLSN7SC1 VIS VRB 1/4-3/4 SLP960
YEK CYEK Arviat, CA Arviat Airport 0 15 -18/-20 29.78 CYEK 251300Z 00000KT 15SM -SN OVC010 M18/M20 A2978 RMK SC8 SNW CVR/TRACE LOOSE SLP087
YBB CYBB Kugaaruk, CA Kugaaruk Airport 13 10 -18/-21 29.65 CYBB 251300Z 26013KT 10SM DRSN BKN015 M18/M21 A2965 RMK SC6 SNW CVR HARD PACK SLP044
CXWB 9 -18/-21 CXWB 251200Z AUTO 32009KT M18/M21 RMK AO1 SLP078 T11821211 58015
PLX UASS Semey, KZ Semipalatinsk Airport 2 6.21 -18/-20 30.62 UASS 251230Z 18001MPS CAVOK M18/M20 Q1037 R26/49//39 NOSIG RMK QFE759/1012
CWRX 9 -18/-20 29.48 CWRX 251300Z AUTO 32009KT ////SM //// OVC021 M18/M20 A2948
YUT CYUT Repulse Bay, CA Naujaat Airport 7 15 -17/-21 29.65 CYUT 251300Z 33007KT 15SM BKN050 M17/M21 A2965 RMK SC6 S00 AFT 23UTC/SNW CVR HARD PACK SLP047